sensor_id;sensor_type;location;lat;lon;timestamp;P1;durP1;ratioP1;P2;durP2;ratioP2
7659;SDS011;3872;47.902;8.162;2023-05-07T00:00:27;4.30;;;2.03;;
7659;SDS011;3872;47.902;8.162;2023-05-07T00:02:54;4.13;;;2.37;;
7659;SDS011;3872;47.902;8.162;2023-05-07T00:05:21;4.53;;;1.97;;
7659;SDS011;3872;47.902;8.162;2023-05-07T00:07:47;4.93;;;2.23;;
7659;SDS011;3872;47.902;8.162;2023-05-07T00:10:14;10.67;;;2.87;;
7659;SDS011;3872;47.902;8.162;2023-05-07T00:12:40;8.63;;;2.20;;
7659;SDS011;3872;47.902;8.162;2023-05-07T00:15:09;5.60;;;2.83;;
7659;SDS011;3872;47.902;8.162;2023-05-07T00:17:36;6.27;;;2.97;;
7659;SDS011;3872;47.902;8.162;2023-05-07T00:20:02;4.90;;;2.20;;
7659;SDS011;3872;47.902;8.162;2023-05-07T00:22:30;5.10;;;2.70;;
7659;SDS011;3872;47.902;8.162;2023-05-07T00:24:57;4.67;;;2.03;;
7659;SDS011;3872;47.902;8.162;2023-05-07T00:27:24;5.93;;;2.70;;
7659;SDS011;3872;47.902;8.162;2023-05-07T00:29:51;5.70;;;2.10;;
7659;SDS011;3872;47.902;8.162;2023-05-07T00:32:18;4.83;;;2.30;;
7659;SDS011;3872;47.902;8.162;2023-05-07T00:34:45;6.87;;;2.73;;
7659;SDS011;3872;47.902;8.162;2023-05-07T00:37:12;4.87;;;2.57;;
7659;SDS011;3872;47.902;8.162;2023-05-07T00:39:38;5.97;;;2.43;;
7659;SDS011;3872;47.902;8.162;2023-05-07T00:42:05;4.47;;;2.20;;
7659;SDS011;3872;47.902;8.162;2023-05-07T00:44:31;5.23;;;2.57;;
7659;SDS011;3872;47.902;8.162;2023-05-07T00:46:58;4.90;;;2.20;;
7659;SDS011;3872;47.902;8.162;2023-05-07T00:49:30;5.00;;;2.60;;
7659;SDS011;3872;47.902;8.162;2023-05-07T00:52:03;6.40;;;2.40;;
7659;SDS011;3872;47.902;8.162;2023-05-07T00:54:31;5.37;;;2.47;;
7659;SDS011;3872;47.902;8.162;2023-05-07T00:56:59;4.50;;;2.20;;
7659;SDS011;3872;47.902;8.162;2023-05-07T00:59:26;6.53;;;2.53;;
7659;SDS011;3872;47.902;8.162;2023-05-07T01:01:53;4.87;;;2.07;;
7659;SDS011;3872;47.902;8.162;2023-05-07T01:04:20;5.23;;;2.50;;
7659;SDS011;3872;47.902;8.162;2023-05-07T01:06:47;6.13;;;2.53;;
7659;SDS011;3872;47.902;8.162;2023-05-07T01:09:15;5.93;;;2.30;;
7659;SDS011;3872;47.902;8.162;2023-05-07T01:11:42;9.03;;;2.40;;
7659;SDS011;3872;47.902;8.162;2023-05-07T01:14:09;4.87;;;2.67;;
7659;SDS011;3872;47.902;8.162;2023-05-07T01:16:36;9.00;;;2.13;;
7659;SDS011;3872;47.902;8.162;2023-05-07T01:19:03;5.90;;;2.83;;
7659;SDS011;3872;47.902;8.162;2023-05-07T01:21:30;7.57;;;2.67;;
7659;SDS011;3872;47.902;8.162;2023-05-07T01:24:03;4.80;;;2.40;;
7659;SDS011;3872;47.902;8.162;2023-05-07T01:26:31;5.10;;;2.10;;
7659;SDS011;3872;47.902;8.162;2023-05-07T01:28:58;5.33;;;2.40;;
7659;SDS011;3872;47.902;8.162;2023-05-07T01:31:25;6.40;;;2.60;;
7659;SDS011;3872;47.902;8.162;2023-05-07T01:33:51;5.27;;;2.67;;
7659;SDS011;3872;47.902;8.162;2023-05-07T01:36:19;5.07;;;2.27;;
7659;SDS011;3872;47.902;8.162;2023-05-07T01:38:49;7.37;;;3.33;;
7659;SDS011;3872;47.902;8.162;2023-05-07T01:41:18;4.50;;;2.50;;
7659;SDS011;3872;47.902;8.162;2023-05-07T01:43:46;6.20;;;2.47;;
7659;SDS011;3872;47.902;8.162;2023-05-07T01:46:13;5.20;;;2.67;;
7659;SDS011;3872;47.902;8.162;2023-05-07T01:48:41;5.63;;;2.63;;
7659;SDS011;3872;47.902;8.162;2023-05-07T01:51:10;8.43;;;2.70;;
7659;SDS011;3872;47.902;8.162;2023-05-07T01:53:37;7.83;;;2.50;;
7659;SDS011;3872;47.902;8.162;2023-05-07T01:56:06;5.63;;;2.40;;
7659;SDS011;3872;47.902;8.162;2023-05-07T01:58:36;7.37;;;2.70;;
7659;SDS011;3872;47.902;8.162;2023-05-07T02:01:03;5.30;;;2.47;;
7659;SDS011;3872;47.902;8.162;2023-05-07T02:03:30;5.37;;;2.50;;
7659;SDS011;3872;47.902;8.162;2023-05-07T02:06:05;4.83;;;2.10;;
7659;SDS011;3872;47.902;8.162;2023-05-07T02:08:34;5.73;;;2.10;;
7659;SDS011;3872;47.902;8.162;2023-05-07T02:11:01;7.00;;;2.70;;
7659;SDS011;3872;47.902;8.162;2023-05-07T02:13:29;5.13;;;2.50;;
7659;SDS011;3872;47.902;8.162;2023-05-07T02:15:59;4.97;;;2.57;;
7659;SDS011;3872;47.902;8.162;2023-05-07T02:18:27;6.93;;;2.63;;
7659;SDS011;3872;47.902;8.162;2023-05-07T02:20:53;5.30;;;2.73;;
7659;SDS011;3872;47.902;8.162;2023-05-07T02:23:20;4.83;;;2.60;;
7659;SDS011;3872;47.902;8.162;2023-05-07T02:25:46;5.20;;;2.50;;
7659;SDS011;3872;47.902;8.162;2023-05-07T02:28:13;5.40;;;2.17;;
7659;SDS011;3872;47.902;8.162;2023-05-07T02:30:53;7.00;;;2.67;;
7659;SDS011;3872;47.902;8.162;2023-05-07T02:33:21;5.43;;;2.77;;
7659;SDS011;3872;47.902;8.162;2023-05-07T02:35:47;9.37;;;2.57;;
7659;SDS011;3872;47.902;8.162;2023-05-07T02:38:15;7.27;;;2.30;;
7659;SDS011;3872;47.902;8.162;2023-05-07T02:40:42;5.57;;;2.47;;
7659;SDS011;3872;47.902;8.162;2023-05-07T02:43:09;4.97;;;2.47;;
7659;SDS011;3872;47.902;8.162;2023-05-07T02:45:36;9.17;;;2.30;;
7659;SDS011;3872;47.902;8.162;2023-05-07T02:48:05;4.67;;;2.17;;
7659;SDS011;3872;47.902;8.162;2023-05-07T02:50:33;5.20;;;1.90;;
7659;SDS011;3872;47.902;8.162;2023-05-07T02:53:00;5.30;;;2.10;;
7659;SDS011;3872;47.902;8.162;2023-05-07T02:55:27;4.10;;;1.80;;
7659;SDS011;3872;47.902;8.162;2023-05-07T02:57:53;4.40;;;1.80;;
7659;SDS011;3872;47.902;8.162;2023-05-07T03:00:20;3.93;;;1.87;;
7659;SDS011;3872;47.902;8.162;2023-05-07T03:03:14;4.63;;;2.23;;
7659;SDS011;3872;47.902;8.162;2023-05-07T03:05:42;4.67;;;1.73;;
7659;SDS011;3872;47.902;8.162;2023-05-07T03:08:09;6.77;;;2.03;;
7659;SDS011;3872;47.902;8.162;2023-05-07T03:10:36;4.00;;;1.83;;
7659;SDS011;3872;47.902;8.162;2023-05-07T03:13:03;4.40;;;2.03;;
7659;SDS011;3872;47.902;8.162;2023-05-07T03:15:32;6.63;;;2.40;;
7659;SDS011;3872;47.902;8.162;2023-05-07T03:17:58;4.37;;;2.00;;
7659;SDS011;3872;47.902;8.162;2023-05-07T03:20:25;4.50;;;2.30;;
7659;SDS011;3872;47.902;8.162;2023-05-07T03:22:53;4.27;;;1.97;;
7659;SDS011;3872;47.902;8.162;2023-05-07T03:25:20;6.60;;;2.37;;
7659;SDS011;3872;47.902;8.162;2023-05-07T03:27:47;8.87;;;2.80;;
7659;SDS011;3872;47.902;8.162;2023-05-07T03:30:15;5.47;;;2.17;;
7659;SDS011;3872;47.902;8.162;2023-05-07T03:32:42;4.80;;;2.40;;
7659;SDS011;3872;47.902;8.162;2023-05-07T03:35:10;5.00;;;2.30;;
7659;SDS011;3872;47.902;8.162;2023-05-07T03:37:37;4.80;;;2.40;;
7659;SDS011;3872;47.902;8.162;2023-05-07T03:40:06;6.23;;;2.57;;
7659;SDS011;3872;47.902;8.162;2023-05-07T03:42:41;6.23;;;2.70;;
7659;SDS011;3872;47.902;8.162;2023-05-07T03:45:09;5.10;;;2.23;;
7659;SDS011;3872;47.902;8.162;2023-05-07T03:47:39;4.30;;;1.90;;
7659;SDS011;3872;47.902;8.162;2023-05-07T03:50:08;5.33;;;2.20;;
7659;SDS011;3872;47.902;8.162;2023-05-07T03:52:36;4.97;;;2.17;;
7659;SDS011;3872;47.902;8.162;2023-05-07T03:55:05;6.23;;;2.00;;
7659;SDS011;3872;47.902;8.162;2023-05-07T03:57:33;5.50;;;2.60;;
7659;SDS011;3872;47.902;8.162;2023-05-07T04:00:00;4.97;;;2.30;;
7659;SDS011;3872;47.902;8.162;2023-05-07T04:02:32;4.90;;;2.33;;
7659;SDS011;3872;47.902;8.162;2023-05-07T04:04:59;4.60;;;2.30;;
7659;SDS011;3872;47.902;8.162;2023-05-07T04:07:26;4.53;;;2.30;;
7659;SDS011;3872;47.902;8.162;2023-05-07T04:09:52;6.03;;;2.60;;
7659;SDS011;3872;47.902;8.162;2023-05-07T04:12:20;5.67;;;2.70;;
7659;SDS011;3872;47.902;8.162;2023-05-07T04:14:47;4.30;;;1.90;;
7659;SDS011;3872;47.902;8.162;2023-05-07T04:17:14;5.60;;;2.33;;
7659;SDS011;3872;47.902;8.162;2023-05-07T04:19:40;3.90;;;1.73;;
7659;SDS011;3872;47.902;8.162;2023-05-07T04:22:10;4.00;;;1.70;;
7659;SDS011;3872;47.902;8.162;2023-05-07T04:24:36;16.13;;;2.63;;
7659;SDS011;3872;47.902;8.162;2023-05-07T04:27:03;5.30;;;2.03;;
7659;SDS011;3872;47.902;8.162;2023-05-07T04:29:32;6.20;;;2.57;;
7659;SDS011;3872;47.902;8.162;2023-05-07T04:31:59;5.43;;;2.57;;
7659;SDS011;3872;47.902;8.162;2023-05-07T04:34:26;6.00;;;2.60;;
7659;SDS011;3872;47.902;8.162;2023-05-07T04:36:53;6.20;;;2.03;;
7659;SDS011;3872;47.902;8.162;2023-05-07T04:39:19;4.00;;;1.77;;
7659;SDS011;3872;47.902;8.162;2023-05-07T04:41:47;4.33;;;1.90;;
7659;SDS011;3872;47.902;8.162;2023-05-07T04:44:14;5.30;;;2.20;;
7659;SDS011;3872;47.902;8.162;2023-05-07T04:46:43;10.03;;;2.97;;
7659;SDS011;3872;47.902;8.162;2023-05-07T04:49:10;4.90;;;2.80;;
7659;SDS011;3872;47.902;8.162;2023-05-07T04:51:36;6.77;;;2.40;;
7659;SDS011;3872;47.902;8.162;2023-05-07T04:54:04;4.77;;;2.30;;
7659;SDS011;3872;47.902;8.162;2023-05-07T04:56:30;6.80;;;2.60;;
7659;SDS011;3872;47.902;8.162;2023-05-07T04:58:58;4.50;;;2.10;;
7659;SDS011;3872;47.902;8.162;2023-05-07T05:01:26;4.27;;;1.90;;
7659;SDS011;3872;47.902;8.162;2023-05-07T05:03:54;4.60;;;2.20;;
7659;SDS011;3872;47.902;8.162;2023-05-07T05:06:20;4.40;;;2.40;;
7659;SDS011;3872;47.902;8.162;2023-05-07T05:08:48;5.90;;;3.00;;
7659;SDS011;3872;47.902;8.162;2023-05-07T05:11:15;5.60;;;2.97;;
7659;SDS011;3872;47.902;8.162;2023-05-07T05:13:42;6.60;;;3.30;;
7659;SDS011;3872;47.902;8.162;2023-05-07T05:16:13;10.93;;;3.23;;
7659;SDS011;3872;47.902;8.162;2023-05-07T05:18:40;5.57;;;2.97;;
7659;SDS011;3872;47.902;8.162;2023-05-07T05:21:09;5.23;;;2.83;;
7659;SDS011;3872;47.902;8.162;2023-05-07T05:23:37;7.17;;;3.03;;
7659;SDS011;3872;47.902;8.162;2023-05-07T05:26:04;4.97;;;2.70;;
7659;SDS011;3872;47.902;8.162;2023-05-07T05:28:32;5.13;;;2.73;;
7659;SDS011;3872;47.902;8.162;2023-05-07T05:30:59;4.93;;;2.50;;
7659;SDS011;3872;47.902;8.162;2023-05-07T05:33:30;5.50;;;2.67;;
7659;SDS011;3872;47.902;8.162;2023-05-07T05:36:01;5.37;;;2.70;;
7659;SDS011;3872;47.902;8.162;2023-05-07T05:38:29;4.53;;;2.23;;
7659;SDS011;3872;47.902;8.162;2023-05-07T05:40:56;6.17;;;2.37;;
7659;SDS011;3872;47.902;8.162;2023-05-07T05:43:22;6.13;;;2.60;;
7659;SDS011;3872;47.902;8.162;2023-05-07T05:45:49;5.00;;;2.53;;
7659;SDS011;3872;47.902;8.162;2023-05-07T05:48:16;5.57;;;2.60;;
7659;SDS011;3872;47.902;8.162;2023-05-07T05:50:42;5.70;;;2.50;;
7659;SDS011;3872;47.902;8.162;2023-05-07T05:53:09;7.40;;;2.67;;
7659;SDS011;3872;47.902;8.162;2023-05-07T05:55:37;7.13;;;3.10;;
7659;SDS011;3872;47.902;8.162;2023-05-07T05:58:03;6.37;;;2.93;;
7659;SDS011;3872;47.902;8.162;2023-05-07T06:00:34;6.60;;;3.07;;
7659;SDS011;3872;47.902;8.162;2023-05-07T06:03:03;6.70;;;3.90;;
7659;SDS011;3872;47.902;8.162;2023-05-07T06:05:29;6.80;;;3.23;;
7659;SDS011;3872;47.902;8.162;2023-05-07T06:07:56;8.60;;;3.33;;
7659;SDS011;3872;47.902;8.162;2023-05-07T06:10:25;8.50;;;3.47;;
7659;SDS011;3872;47.902;8.162;2023-05-07T06:12:54;6.00;;;3.03;;
7659;SDS011;3872;47.902;8.162;2023-05-07T06:15:21;6.47;;;2.93;;
7659;SDS011;3872;47.902;8.162;2023-05-07T06:17:48;7.50;;;3.20;;
7659;SDS011;3872;47.902;8.162;2023-05-07T06:20:15;6.10;;;2.87;;
7659;SDS011;3872;47.902;8.162;2023-05-07T06:22:43;5.60;;;3.07;;
7659;SDS011;3872;47.902;8.162;2023-05-07T06:25:11;5.90;;;2.70;;
7659;SDS011;3872;47.902;8.162;2023-05-07T06:27:38;5.87;;;2.97;;
7659;SDS011;3872;47.902;8.162;2023-05-07T06:30:08;7.57;;;2.50;;
7659;SDS011;3872;47.902;8.162;2023-05-07T06:32:35;7.53;;;2.90;;
7659;SDS011;3872;47.902;8.162;2023-05-07T06:35:02;4.73;;;2.57;;
7659;SDS011;3872;47.902;8.162;2023-05-07T06:37:30;5.80;;;2.70;;
7659;SDS011;3872;47.902;8.162;2023-05-07T06:40:00;6.70;;;2.60;;
7659;SDS011;3872;47.902;8.162;2023-05-07T06:42:29;5.93;;;2.57;;
7659;SDS011;3872;47.902;8.162;2023-05-07T06:44:58;4.83;;;2.50;;
7659;SDS011;3872;47.902;8.162;2023-05-07T06:47:29;5.20;;;2.40;;
7659;SDS011;3872;47.902;8.162;2023-05-07T06:49:56;5.73;;;2.83;;
7659;SDS011;3872;47.902;8.162;2023-05-07T06:52:26;6.70;;;3.00;;
7659;SDS011;3872;47.902;8.162;2023-05-07T06:54:54;5.97;;;2.77;;
7659;SDS011;3872;47.902;8.162;2023-05-07T06:57:22;6.50;;;2.27;;
7659;SDS011;3872;47.902;8.162;2023-05-07T06:59:49;5.80;;;2.77;;
7659;SDS011;3872;47.902;8.162;2023-05-07T07:02:18;5.23;;;2.53;;
7659;SDS011;3872;47.902;8.162;2023-05-07T07:04:47;5.67;;;2.70;;
7659;SDS011;3872;47.902;8.162;2023-05-07T07:07:13;4.60;;;2.30;;
7659;SDS011;3872;47.902;8.162;2023-05-07T07:09:43;6.03;;;2.87;;
7659;SDS011;3872;47.902;8.162;2023-05-07T07:12:10;8.33;;;3.00;;
7659;SDS011;3872;47.902;8.162;2023-05-07T07:14:38;5.70;;;2.70;;
7659;SDS011;3872;47.902;8.162;2023-05-07T07:17:05;5.50;;;2.70;;
7659;SDS011;3872;47.902;8.162;2023-05-07T07:19:33;6.50;;;3.17;;
7659;SDS011;3872;47.902;8.162;2023-05-07T07:22:02;9.43;;;3.90;;
7659;SDS011;3872;47.902;8.162;2023-05-07T07:24:29;10.33;;;4.57;;
7659;SDS011;3872;47.902;8.162;2023-05-07T07:27:00;12.17;;;4.90;;
7659;SDS011;3872;47.902;8.162;2023-05-07T07:29:27;15.03;;;5.53;;
7659;SDS011;3872;47.902;8.162;2023-05-07T07:31:54;16.33;;;5.23;;
7659;SDS011;3872;47.902;8.162;2023-05-07T07:34:20;9.50;;;4.33;;
7659;SDS011;3872;47.902;8.162;2023-05-07T07:36:48;5.77;;;3.07;;
7659;SDS011;3872;47.902;8.162;2023-05-07T07:39:18;7.50;;;3.87;;
7659;SDS011;3872;47.902;8.162;2023-05-07T07:41:47;7.90;;;3.87;;
7659;SDS011;3872;47.902;8.162;2023-05-07T07:44:15;7.53;;;3.93;;
7659;SDS011;3872;47.902;8.162;2023-05-07T07:46:47;8.60;;;4.10;;
7659;SDS011;3872;47.902;8.162;2023-05-07T07:49:14;7.67;;;3.20;;
7659;SDS011;3872;47.902;8.162;2023-05-07T07:51:41;11.40;;;3.80;;
7659;SDS011;3872;47.902;8.162;2023-05-07T07:54:09;8.07;;;3.10;;
7659;SDS011;3872;47.902;8.162;2023-05-07T07:56:37;7.53;;;2.70;;
7659;SDS011;3872;47.902;8.162;2023-05-07T07:59:05;5.50;;;2.60;;
7659;SDS011;3872;47.902;8.162;2023-05-07T08:01:33;7.53;;;2.43;;
7659;SDS011;3872;47.902;8.162;2023-05-07T08:04:00;5.10;;;2.10;;
7659;SDS011;3872;47.902;8.162;2023-05-07T08:06:30;6.20;;;2.07;;
7659;SDS011;3872;47.902;8.162;2023-05-07T08:08:56;5.20;;;1.93;;
7659;SDS011;3872;47.902;8.162;2023-05-07T08:11:23;4.33;;;1.67;;
7659;SDS011;3872;47.902;8.162;2023-05-07T08:13:53;6.30;;;1.60;;
7659;SDS011;3872;47.902;8.162;2023-05-07T08:16:20;6.40;;;2.00;;
7659;SDS011;3872;47.902;8.162;2023-05-07T08:18:46;7.40;;;2.50;;
7659;SDS011;3872;47.902;8.162;2023-05-07T08:21:13;4.70;;;1.73;;
7659;SDS011;3872;47.902;8.162;2023-05-07T08:23:40;8.30;;;1.90;;
7659;SDS011;3872;47.902;8.162;2023-05-07T08:26:07;12.77;;;2.23;;
7659;SDS011;3872;47.902;8.162;2023-05-07T08:28:35;8.57;;;1.97;;
7659;SDS011;3872;47.902;8.162;2023-05-07T08:31:03;5.83;;;2.40;;
7659;SDS011;3872;47.902;8.162;2023-05-07T08:33:34;5.73;;;2.37;;
7659;SDS011;3872;47.902;8.162;2023-05-07T08:36:00;6.90;;;2.10;;
7659;SDS011;3872;47.902;8.162;2023-05-07T08:38:27;6.30;;;2.10;;
7659;SDS011;3872;47.902;8.162;2023-05-07T08:40:54;6.30;;;2.17;;
7659;SDS011;3872;47.902;8.162;2023-05-07T08:43:20;10.43;;;2.20;;
7659;SDS011;3872;47.902;8.162;2023-05-07T08:45:49;6.30;;;2.13;;
7659;SDS011;3872;47.902;8.162;2023-05-07T08:48:25;6.83;;;2.30;;
7659;SDS011;3872;47.902;8.162;2023-05-07T08:51:01;4.93;;;1.80;;
7659;SDS011;3872;47.902;8.162;2023-05-07T08:53:28;8.60;;;2.07;;
7659;SDS011;3872;47.902;8.162;2023-05-07T08:55:56;8.03;;;1.80;;
7659;SDS011;3872;47.902;8.162;2023-05-07T08:58:23;5.43;;;1.90;;
7659;SDS011;3872;47.902;8.162;2023-05-07T09:00:50;6.37;;;1.90;;
7659;SDS011;3872;47.902;8.162;2023-05-07T09:03:19;5.83;;;2.00;;
7659;SDS011;3872;47.902;8.162;2023-05-07T09:05:51;4.30;;;1.50;;
7659;SDS011;3872;47.902;8.162;2023-05-07T09:08:19;5.93;;;2.17;;
7659;SDS011;3872;47.902;8.162;2023-05-07T09:10:52;7.47;;;1.80;;
7659;SDS011;3872;47.902;8.162;2023-05-07T09:13:20;5.70;;;2.00;;
7659;SDS011;3872;47.902;8.162;2023-05-07T09:15:47;5.27;;;1.90;;
7659;SDS011;3872;47.902;8.162;2023-05-07T09:18:14;7.60;;;1.90;;
7659;SDS011;3872;47.902;8.162;2023-05-07T09:20:41;4.90;;;1.90;;
7659;SDS011;3872;47.902;8.162;2023-05-07T09:23:11;6.60;;;1.90;;
7659;SDS011;3872;47.902;8.162;2023-05-07T09:25:37;8.63;;;1.50;;
7659;SDS011;3872;47.902;8.162;2023-05-07T09:28:12;6.10;;;1.60;;
7659;SDS011;3872;47.902;8.162;2023-05-07T09:30:39;5.60;;;2.23;;
7659;SDS011;3872;47.902;8.162;2023-05-07T09:33:08;7.07;;;2.03;;
7659;SDS011;3872;47.902;8.162;2023-05-07T09:35:38;5.37;;;1.90;;
7659;SDS011;3872;47.902;8.162;2023-05-07T09:38:12;4.93;;;1.90;;
7659;SDS011;3872;47.902;8.162;2023-05-07T09:40:38;6.83;;;1.90;;
7659;SDS011;3872;47.902;8.162;2023-05-07T09:43:10;5.10;;;2.00;;
7659;SDS011;3872;47.902;8.162;2023-05-07T09:45:44;5.20;;;2.30;;
7659;SDS011;3872;47.902;8.162;2023-05-07T09:48:11;4.63;;;1.97;;
7659;SDS011;3872;47.902;8.162;2023-05-07T09:50:45;4.67;;;1.90;;
7659;SDS011;3872;47.902;8.162;2023-05-07T09:53:19;5.83;;;2.57;;
7659;SDS011;3872;47.902;8.162;2023-05-07T09:55:47;6.87;;;2.53;;
7659;SDS011;3872;47.902;8.162;2023-05-07T09:58:13;5.27;;;2.10;;
7659;SDS011;3872;47.902;8.162;2023-05-07T10:00:45;6.77;;;2.43;;
7659;SDS011;3872;47.902;8.162;2023-05-07T10:03:14;4.87;;;2.53;;
7659;SDS011;3872;47.902;8.162;2023-05-07T10:05:49;6.30;;;2.83;;
7659;SDS011;3872;47.902;8.162;2023-05-07T10:08:20;6.27;;;3.10;;
7659;SDS011;3872;47.902;8.162;2023-05-07T10:10:50;7.73;;;2.87;;
7659;SDS011;3872;47.902;8.162;2023-05-07T10:13:21;5.60;;;2.87;;
7659;SDS011;3872;47.902;8.162;2023-05-07T10:15:51;7.17;;;2.20;;
7659;SDS011;3872;47.902;8.162;2023-05-07T10:18:19;10.90;;;2.73;;
7659;SDS011;3872;47.902;8.162;2023-05-07T10:20:49;9.00;;;3.33;;
7659;SDS011;3872;47.902;8.162;2023-05-07T10:23:22;6.30;;;3.13;;
7659;SDS011;3872;47.902;8.162;2023-05-07T10:25:52;8.13;;;4.33;;
7659;SDS011;3872;47.902;8.162;2023-05-07T10:28:21;9.53;;;3.60;;
7659;SDS011;3872;47.902;8.162;2023-05-07T10:30:53;11.93;;;3.63;;
7659;SDS011;3872;47.902;8.162;2023-05-07T10:33:38;8.53;;;2.10;;
7659;SDS011;3872;47.902;8.162;2023-05-07T10:36:06;7.43;;;2.50;;
7659;SDS011;3872;47.902;8.162;2023-05-07T10:38:34;8.20;;;2.30;;
7659;SDS011;3872;47.902;8.162;2023-05-07T10:41:01;5.30;;;2.23;;
7659;SDS011;3872;47.902;8.162;2023-05-07T10:43:38;5.43;;;2.10;;
7659;SDS011;3872;47.902;8.162;2023-05-07T10:46:11;11.40;;;3.00;;
7659;SDS011;3872;47.902;8.162;2023-05-07T10:54:41;5.83;;;3.30;;
7659;SDS011;3872;47.902;8.162;2023-05-07T11:03:16;6.20;;;3.00;;
7659;SDS011;3872;47.902;8.162;2023-05-07T11:06:11;6.23;;;2.90;;
7659;SDS011;3872;47.902;8.162;2023-05-07T11:08:53;5.00;;;2.03;;
7659;SDS011;3872;47.902;8.162;2023-05-07T11:17:18;5.90;;;2.43;;
7659;SDS011;3872;47.902;8.162;2023-05-07T11:19:52;10.53;;;1.90;;
7659;SDS011;3872;47.902;8.162;2023-05-07T11:22:41;5.90;;;2.53;;
7659;SDS011;3872;47.902;8.162;2023-05-07T11:25:29;5.50;;;2.13;;
7659;SDS011;3872;47.902;8.162;2023-05-07T11:28:07;5.60;;;2.60;;
7659;SDS011;3872;47.902;8.162;2023-05-07T11:30:36;5.03;;;2.00;;
7659;SDS011;3872;47.902;8.162;2023-05-07T11:33:07;5.40;;;1.93;;
7659;SDS011;3872;47.902;8.162;2023-05-07T11:35:34;5.70;;;2.20;;
7659;SDS011;3872;47.902;8.162;2023-05-07T11:38:01;5.43;;;2.30;;
7659;SDS011;3872;47.902;8.162;2023-05-07T11:40:31;5.57;;;2.47;;
7659;SDS011;3872;47.902;8.162;2023-05-07T11:42:57;6.73;;;2.30;;
7659;SDS011;3872;47.902;8.162;2023-05-07T11:45:25;5.80;;;2.33;;
7659;SDS011;3872;47.902;8.162;2023-05-07T11:47:52;4.70;;;2.10;;
7659;SDS011;3872;47.902;8.162;2023-05-07T11:50:18;19.27;;;8.00;;
7659;SDS011;3872;47.902;8.162;2023-05-07T11:52:49;31.73;;;8.60;;
7659;SDS011;3872;47.902;8.162;2023-05-07T11:55:17;6.10;;;2.57;;
7659;SDS011;3872;47.902;8.162;2023-05-07T11:57:44;5.17;;;1.83;;
7659;SDS011;3872;47.902;8.162;2023-05-07T12:00:11;7.10;;;2.90;;
7659;SDS011;3872;47.902;8.162;2023-05-07T12:02:43;5.70;;;2.10;;
7659;SDS011;3872;47.902;8.162;2023-05-07T12:05:09;4.67;;;1.93;;
7659;SDS011;3872;47.902;8.162;2023-05-07T12:07:36;4.90;;;1.73;;
7659;SDS011;3872;47.902;8.162;2023-05-07T12:10:04;4.50;;;1.70;;
7659;SDS011;3872;47.902;8.162;2023-05-07T12:12:31;4.57;;;1.90;;
7659;SDS011;3872;47.902;8.162;2023-05-07T12:15:04;4.40;;;1.70;;
7659;SDS011;3872;47.902;8.162;2023-05-07T12:17:31;4.97;;;1.60;;
7659;SDS011;3872;47.902;8.162;2023-05-07T12:19:58;5.47;;;1.63;;
7659;SDS011;3872;47.902;8.162;2023-05-07T12:22:26;5.37;;;1.80;;
7659;SDS011;3872;47.902;8.162;2023-05-07T12:24:56;4.83;;;1.67;;
7659;SDS011;3872;47.902;8.162;2023-05-07T12:27:23;6.20;;;1.30;;
7659;SDS011;3872;47.902;8.162;2023-05-07T12:29:50;4.10;;;1.30;;
7659;SDS011;3872;47.902;8.162;2023-05-07T12:32:17;7.50;;;1.57;;
7659;SDS011;3872;47.902;8.162;2023-05-07T12:34:45;5.10;;;1.80;;
7659;SDS011;3872;47.902;8.162;2023-05-07T12:37:13;4.57;;;1.77;;
7659;SDS011;3872;47.902;8.162;2023-05-07T12:39:44;4.30;;;1.63;;
7659;SDS011;3872;47.902;8.162;2023-05-07T12:42:14;5.27;;;1.77;;
7659;SDS011;3872;47.902;8.162;2023-05-07T12:44:43;4.53;;;1.60;;
7659;SDS011;3872;47.902;8.162;2023-05-07T12:47:12;4.77;;;1.53;;
7659;SDS011;3872;47.902;8.162;2023-05-07T12:49:38;4.37;;;1.63;;
7659;SDS011;3872;47.902;8.162;2023-05-07T12:52:05;4.40;;;1.70;;
7659;SDS011;3872;47.902;8.162;2023-05-07T12:54:35;4.90;;;1.40;;
7659;SDS011;3872;47.902;8.162;2023-05-07T12:57:04;9.10;;;1.77;;
7659;SDS011;3872;47.902;8.162;2023-05-07T12:59:32;4.37;;;1.50;;
7659;SDS011;3872;47.902;8.162;2023-05-07T13:01:59;4.70;;;1.50;;
7659;SDS011;3872;47.902;8.162;2023-05-07T13:04:26;4.50;;;1.23;;
7659;SDS011;3872;47.902;8.162;2023-05-07T13:06:55;6.37;;;1.50;;
7659;SDS011;3872;47.902;8.162;2023-05-07T13:09:22;4.77;;;1.60;;
7659;SDS011;3872;47.902;8.162;2023-05-07T13:11:50;5.30;;;1.70;;
7659;SDS011;3872;47.902;8.162;2023-05-07T13:14:16;4.30;;;1.73;;
7659;SDS011;3872;47.902;8.162;2023-05-07T13:16:45;4.93;;;1.70;;
7659;SDS011;3872;47.902;8.162;2023-05-07T13:19:11;4.33;;;1.87;;
7659;SDS011;3872;47.902;8.162;2023-05-07T13:21:38;5.27;;;1.90;;
7659;SDS011;3872;47.902;8.162;2023-05-07T13:24:05;6.93;;;2.90;;
7659;SDS011;3872;47.902;8.162;2023-05-07T13:26:32;6.83;;;3.07;;
7659;SDS011;3872;47.902;8.162;2023-05-07T13:29:01;9.30;;;2.70;;
7659;SDS011;3872;47.902;8.162;2023-05-07T13:31:27;7.77;;;3.33;;
7659;SDS011;3872;47.902;8.162;2023-05-07T13:33:54;14.33;;;3.97;;
7659;SDS011;3872;47.902;8.162;2023-05-07T13:36:21;6.53;;;2.70;;
7659;SDS011;3872;47.902;8.162;2023-05-07T13:38:48;5.33;;;2.63;;
7659;SDS011;3872;47.902;8.162;2023-05-07T13:41:15;5.23;;;2.33;;
7659;SDS011;3872;47.902;8.162;2023-05-07T13:43:41;8.23;;;2.60;;
7659;SDS011;3872;47.902;8.162;2023-05-07T13:46:09;6.70;;;2.23;;
7659;SDS011;3872;47.902;8.162;2023-05-07T13:48:36;7.67;;;2.10;;
7659;SDS011;3872;47.902;8.162;2023-05-07T13:51:02;4.60;;;1.70;;
7659;SDS011;3872;47.902;8.162;2023-05-07T13:53:29;7.23;;;1.80;;
7659;SDS011;3872;47.902;8.162;2023-05-07T13:55:56;6.33;;;2.03;;
7659;SDS011;3872;47.902;8.162;2023-05-07T13:58:22;6.33;;;2.10;;
7659;SDS011;3872;47.902;8.162;2023-05-07T14:00:49;4.00;;;1.40;;
7659;SDS011;3872;47.902;8.162;2023-05-07T14:03:16;4.60;;;1.60;;
7659;SDS011;3872;47.902;8.162;2023-05-07T14:05:44;4.60;;;1.70;;
7659;SDS011;3872;47.902;8.162;2023-05-07T14:08:11;5.00;;;2.07;;
7659;SDS011;3872;47.902;8.162;2023-05-07T14:10:38;5.97;;;1.87;;
7659;SDS011;3872;47.902;8.162;2023-05-07T14:13:05;4.33;;;1.50;;
7659;SDS011;3872;47.902;8.162;2023-05-07T14:15:32;4.30;;;1.80;;
7659;SDS011;3872;47.902;8.162;2023-05-07T14:17:59;9.20;;;1.90;;
7659;SDS011;3872;47.902;8.162;2023-05-07T14:20:28;4.30;;;1.37;;
7659;SDS011;3872;47.902;8.162;2023-05-07T14:22:56;4.20;;;1.70;;
7659;SDS011;3872;47.902;8.162;2023-05-07T14:25:22;7.80;;;2.00;;
7659;SDS011;3872;47.902;8.162;2023-05-07T14:27:50;4.40;;;1.63;;
7659;SDS011;3872;47.902;8.162;2023-05-07T14:30:17;4.83;;;1.70;;
7659;SDS011;3872;47.902;8.162;2023-05-07T14:32:43;4.70;;;1.77;;
7659;SDS011;3872;47.902;8.162;2023-05-07T14:35:10;5.23;;;1.60;;
7659;SDS011;3872;47.902;8.162;2023-05-07T14:37:38;6.83;;;1.80;;
7659;SDS011;3872;47.902;8.162;2023-05-07T14:40:05;3.97;;;1.53;;
7659;SDS011;3872;47.902;8.162;2023-05-07T14:42:32;7.30;;;1.50;;
7659;SDS011;3872;47.902;8.162;2023-05-07T14:44:59;5.63;;;1.50;;
7659;SDS011;3872;47.902;8.162;2023-05-07T14:47:25;5.57;;;2.10;;
7659;SDS011;3872;47.902;8.162;2023-05-07T14:49:52;4.07;;;1.50;;
7659;SDS011;3872;47.902;8.162;2023-05-07T14:52:19;4.73;;;1.60;;
7659;SDS011;3872;47.902;8.162;2023-05-07T14:54:47;5.83;;;1.97;;
7659;SDS011;3872;47.902;8.162;2023-05-07T14:57:14;4.23;;;1.57;;
7659;SDS011;3872;47.902;8.162;2023-05-07T14:59:43;4.50;;;1.37;;
7659;SDS011;3872;47.902;8.162;2023-05-07T15:02:10;4.60;;;1.70;;
7659;SDS011;3872;47.902;8.162;2023-05-07T15:04:37;4.00;;;1.40;;
7659;SDS011;3872;47.902;8.162;2023-05-07T15:07:05;5.70;;;1.20;;
7659;SDS011;3872;47.902;8.162;2023-05-07T15:09:32;4.57;;;1.73;;
7659;SDS011;3872;47.902;8.162;2023-05-07T15:11:59;4.37;;;1.20;;
7659;SDS011;3872;47.902;8.162;2023-05-07T15:14:27;3.90;;;1.30;;
7659;SDS011;3872;47.902;8.162;2023-05-07T15:16:53;8.30;;;1.60;;
7659;SDS011;3872;47.902;8.162;2023-05-07T15:19:20;4.53;;;1.37;;
7659;SDS011;3872;47.902;8.162;2023-05-07T15:21:47;5.33;;;1.23;;
7659;SDS011;3872;47.902;8.162;2023-05-07T15:24:14;6.97;;;1.60;;
7659;SDS011;3872;47.902;8.162;2023-05-07T15:26:41;4.70;;;1.70;;
7659;SDS011;3872;47.902;8.162;2023-05-07T15:29:09;4.40;;;2.10;;
7659;SDS011;3872;47.902;8.162;2023-05-07T15:31:36;5.23;;;2.57;;
7659;SDS011;3872;47.902;8.162;2023-05-07T15:34:03;9.50;;;2.73;;
7659;SDS011;3872;47.902;8.162;2023-05-07T15:36:30;5.40;;;3.10;;
7659;SDS011;3872;47.902;8.162;2023-05-07T15:38:57;5.43;;;2.73;;